createdAt,value
2022-10-05T00:00:25.485Z,973.21
2022-10-05T00:01:25.852Z,973.20
2022-10-05T00:02:26.107Z,973.19
2022-10-05T00:03:30.267Z,973.19
2022-10-05T00:04:26.804Z,973.13
2022-10-05T00:05:27.087Z,973.13
2022-10-05T00:06:27.327Z,973.10
2022-10-05T00:07:27.657Z,973.08
2022-10-05T00:08:27.990Z,973.08
2022-10-05T00:09:28.349Z,973.08
2022-10-05T00:10:28.562Z,973.08
2022-10-05T00:11:28.880Z,973.12
2022-10-05T00:12:29.209Z,973.14
2022-10-05T00:13:29.532Z,973.16
2022-10-05T00:14:30.780Z,973.16
2022-10-05T00:15:30.167Z,973.16
2022-10-05T00:16:32.416Z,973.16
2022-10-05T00:17:30.748Z,973.16
2022-10-05T00:18:30.966Z,973.21
2022-10-05T00:19:31.324Z,973.25
2022-10-05T00:20:31.547Z,973.26
2022-10-05T00:21:31.901Z,973.27
2022-10-05T00:22:32.104Z,973.29
2022-10-05T00:23:32.459Z,973.32
2022-10-05T00:24:32.671Z,973.34
2022-10-05T00:25:33.024Z,973.30
2022-10-05T00:26:33.501Z,973.31
2022-10-05T00:27:33.491Z,973.32
2022-10-05T00:28:33.867Z,973.30
2022-10-05T00:29:34.109Z,973.30
2022-10-05T00:30:34.480Z,973.28
2022-10-05T00:31:34.759Z,973.27
2022-10-05T00:32:35.044Z,973.23
2022-10-05T00:33:35.368Z,973.22
2022-10-05T00:34:35.707Z,973.17
2022-10-05T00:35:36.061Z,973.15
2022-10-05T00:36:36.268Z,973.12
2022-10-05T00:37:36.597Z,973.10
2022-10-05T00:38:36.896Z,973.08
2022-10-05T00:39:37.230Z,973.06
2022-10-05T00:40:37.594Z,973.07
2022-10-05T00:41:38.583Z,973.04
2022-10-05T00:42:38.097Z,973.01
2022-10-05T00:43:38.318Z,973.02
2022-10-05T00:44:38.660Z,973.02
2022-10-05T00:45:40.769Z,973.05
2022-10-05T00:46:43.456Z,973.04
2022-10-05T00:47:41.388Z,973.05
2022-10-05T00:48:39.805Z,973.04
2022-10-05T00:49:40.155Z,973.04
2022-10-05T00:50:40.374Z,973.02
2022-10-05T00:51:40.692Z,972.98
2022-10-05T02:55:42.462Z,972.73
2022-10-05T02:56:42.810Z,972.73
2022-10-05T02:57:43.035Z,972.71
2022-10-05T02:58:43.335Z,972.74
2022-10-05T02:59:43.621Z,972.75
2022-10-05T03:00:43.908Z,972.76
2022-10-05T03:01:44.246Z,972.71
2022-10-05T03:02:44.529Z,972.70
2022-10-05T03:03:44.769Z,972.73
2022-10-05T03:04:45.023Z,972.68
2022-10-05T03:05:45.260Z,972.62
2022-10-05T03:06:45.754Z,972.68
2022-10-05T03:07:45.808Z,972.71
2022-10-05T03:08:46.025Z,972.66
2022-10-05T03:09:46.355Z,972.68
2022-10-05T03:10:46.570Z,972.70
2022-10-05T03:11:47.095Z,972.70
2022-10-05T03:12:47.144Z,972.66
2022-10-05T03:13:47.369Z,972.66
2022-10-05T03:14:47.596Z,972.68
2022-10-05T03:15:47.881Z,972.68
2022-10-05T03:16:48.497Z,972.65
2022-10-05T03:17:48.450Z,972.67
2022-10-05T03:18:48.785Z,972.67
2022-10-05T03:19:49.142Z,972.66
2022-10-05T03:20:49.367Z,972.67
2022-10-05T03:21:49.614Z,972.68
2022-10-05T03:22:49.823Z,972.66
2022-10-05T03:23:50.171Z,972.69
2022-10-05T03:24:50.548Z,972.69
2022-10-05T03:25:50.774Z,972.62
2022-10-05T03:26:51.097Z,972.63
2022-10-05T03:27:51.442Z,972.61
2022-10-05T03:28:51.669Z,972.60
2022-10-05T03:29:51.879Z,972.60
2022-10-05T03:30:52.251Z,972.60
2022-10-05T03:31:52.464Z,972.62
2022-10-05T03:32:52.828Z,972.58
2022-10-05T03:33:53.036Z,972.62
2022-10-05T03:34:53.370Z,972.59
2022-10-05T03:35:53.744Z,972.58
2022-10-05T03:36:53.982Z,972.62
2022-10-05T03:37:54.199Z,972.57
2022-10-05T03:38:54.487Z,972.61
2022-10-05T03:39:54.827Z,972.57
2022-10-05T03:40:55.171Z,972.59
2022-10-05T03:41:55.374Z,972.57
2022-10-05T03:42:55.741Z,972.61
2022-10-05T03:43:55.977Z,972.60
2022-10-05T03:44:56.175Z,972.64
2022-10-05T03:45:56.545Z,972.61
2022-10-05T03:46:56.777Z,972.57
2022-10-05T03:48:01.261Z,972.53
2022-10-05T03:48:57.473Z,972.55
2022-10-05T03:49:57.716Z,972.53
2022-10-05T03:50:57.950Z,972.56
2022-10-05T03:51:58.163Z,972.54
2022-10-05T03:52:58.491Z,972.57
2022-10-05T03:53:58.801Z,972.56
2022-10-05T03:54:59.175Z,972.59
2022-10-05T03:55:59.392Z,972.59
2022-10-05T03:56:59.716Z,972.56
2022-10-05T03:58:00.025Z,972.58
2022-10-05T03:59:00.389Z,972.60
2022-10-05T04:00:00.611Z,972.53
2022-10-05T04:01:00.850Z,972.52
2022-10-05T04:02:01.073Z,972.47
2022-10-05T04:03:01.358Z,972.52
2022-10-05T04:04:01.611Z,972.51
2022-10-05T04:05:01.827Z,972.50
2022-10-05T04:06:02.166Z,972.48
2022-10-05T04:07:02.490Z,972.51
2022-10-05T04:08:02.833Z,972.52
2022-10-05T04:09:03.058Z,972.54
2022-10-05T04:10:03.385Z,972.53
2022-10-05T04:11:03.715Z,972.61
2022-10-05T04:12:03.927Z,972.61
2022-10-05T04:13:04.302Z,972.65
2022-10-05T04:14:04.550Z,972.63
2022-10-05T04:15:04.860Z,972.66
2022-10-05T04:16:05.133Z,972.65
2022-10-05T04:17:05.385Z,972.64
2022-10-05T04:18:05.724Z,972.60
2022-10-05T04:19:06.068Z,972.67
2022-10-05T04:20:06.422Z,972.70
2022-10-05T04:21:06.620Z,972.70
2022-10-05T04:22:06.928Z,972.68
2022-10-05T04:23:07.258Z,972.61
2022-10-05T04:24:07.577Z,972.61
2022-10-05T04:25:07.915Z,972.59
2022-10-05T04:26:08.122Z,972.61
2022-10-05T04:27:08.472Z,972.55
2022-10-05T04:28:08.729Z,972.58
2022-10-05T04:29:08.972Z,972.58
2022-10-05T04:30:09.292Z,972.59
2022-10-05T04:31:09.627Z,972.58
2022-10-05T04:32:09.918Z,972.59
2022-10-05T04:33:10.144Z,972.57
2022-10-05T04:34:10.506Z,972.62
2022-10-05T04:35:10.719Z,972.63
2022-10-05T04:36:11.053Z,972.61
2022-10-05T04:37:11.265Z,972.59
2022-10-05T04:38:11.603Z,972.60
2022-10-05T04:39:11.964Z,972.60
2022-10-05T04:40:12.191Z,972.65
2022-10-05T04:41:12.535Z,972.69
2022-10-05T04:42:12.753Z,972.68
2022-10-05T04:43:13.111Z,972.64
2022-10-05T04:44:13.300Z,972.68
2022-10-05T04:45:13.629Z,972.70
2022-10-05T04:46:13.885Z,972.73
2022-10-05T04:47:14.104Z,972.70
2022-10-05T04:48:14.463Z,972.69
2022-10-05T04:49:14.692Z,972.71
2022-10-05T04:50:15.000Z,972.69
2022-10-05T04:51:15.339Z,972.71
2022-10-05T04:52:15.668Z,972.70
2022-10-05T04:53:16.027Z,972.73
2022-10-05T04:54:16.245Z,972.72
2022-10-05T04:55:16.569Z,972.69
2022-10-05T04:56:16.904Z,972.74
2022-10-05T04:57:17.232Z,972.72
2022-10-05T04:58:17.602Z,972.71
2022-10-05T04:59:17.819Z,972.72
2022-10-05T05:00:18.158Z,972.70
2022-10-05T05:01:18.541Z,972.74
2022-10-05T05:02:18.760Z,972.73
2022-10-05T05:03:19.106Z,972.72
2022-10-05T05:04:19.326Z,972.73
2022-10-05T05:05:19.665Z,972.74
2022-10-05T05:06:19.989Z,972.74
2022-10-05T05:07:20.287Z,972.73
2022-10-05T05:08:20.662Z,972.76
2022-10-05T05:09:20.864Z,972.76
2022-10-05T05:10:21.179Z,972.80
2022-10-05T05:11:24.546Z,972.78
2022-10-05T05:12:21.777Z,972.77
2022-10-05T05:13:22.144Z,972.77
2022-10-05T05:14:22.421Z,972.77
2022-10-05T05:15:22.626Z,972.77
2022-10-05T05:16:22.995Z,972.77
2022-10-05T05:17:23.224Z,972.74
2022-10-05T05:18:23.557Z,972.79
2022-10-05T05:19:23.905Z,972.80
2022-10-05T05:20:24.163Z,972.81
2022-10-05T05:21:24.378Z,972.81
2022-10-05T05:22:24.710Z,972.81
2022-10-05T05:23:24.986Z,972.78
2022-10-05T05:24:25.307Z,972.80
2022-10-05T05:25:25.661Z,972.80
2022-10-05T05:26:25.865Z,972.78
2022-10-05T05:27:26.198Z,972.79
2022-10-05T05:28:26.624Z,972.80
2022-10-05T05:29:26.851Z,972.80
2022-10-05T05:30:27.221Z,972.86
2022-10-05T05:31:27.451Z,972.84
2022-10-05T05:32:27.666Z,972.85
2022-10-05T05:33:27.994Z,972.90
2022-10-05T05:34:28.339Z,972.85
2022-10-05T05:35:28.693Z,972.89
2022-10-05T05:36:28.885Z,972.90
2022-10-05T05:37:29.224Z,972.86
2022-10-05T05:38:29.568Z,972.90
2022-10-05T05:39:29.894Z,972.91
2022-10-05T05:40:30.276Z,972.90
2022-10-05T05:41:30.483Z,972.89
2022-10-05T05:42:30.806Z,972.94
2022-10-05T05:43:31.136Z,972.91
2022-10-05T05:44:34.231Z,972.92
2022-10-05T05:45:32.812Z,972.88
2022-10-05T05:46:51.556Z,972.89
2022-10-05T05:47:33.434Z,972.90
2022-10-05T05:48:32.735Z,972.92
2022-10-05T05:49:32.958Z,972.90
2022-10-05T05:50:33.210Z,972.92
2022-10-05T05:51:33.424Z,972.95
2022-10-05T05:52:33.784Z,972.93
2022-10-05T05:53:34.006Z,972.95
2022-10-05T05:54:34.334Z,972.94
2022-10-05T05:55:34.633Z,972.94
2022-10-05T05:56:34.991Z,972.94
2022-10-05T05:57:35.251Z,972.98
2022-10-05T05:58:35.438Z,973.04
2022-10-05T05:59:35.771Z,972.96
2022-10-05T06:00:36.106Z,972.98
2022-10-05T06:01:39.484Z,973.03
2022-10-05T06:02:39.632Z,973.00
2022-10-05T06:03:37.057Z,973.02
2022-10-05T06:04:37.366Z,973.01
2022-10-05T06:05:37.696Z,973.03
2022-10-05T06:06:37.897Z,973.01
2022-10-05T06:07:38.239Z,973.00
2022-10-05T06:08:38.612Z,972.98
2022-10-05T06:09:38.813Z,972.96
2022-10-05T06:10:39.146Z,972.98
2022-10-05T06:11:39.466Z,972.92
2022-10-05T06:12:39.790Z,972.99
2022-10-05T06:13:40.158Z,972.94
2022-10-05T06:14:40.382Z,972.99
2022-10-05T06:15:40.589Z,972.98
2022-10-05T06:16:40.978Z,972.97
2022-10-05T06:17:41.207Z,972.98
2022-10-05T06:18:41.575Z,972.97
2022-10-05T06:19:41.829Z,972.97
2022-10-05T06:20:42.046Z,972.96
2022-10-05T06:21:42.390Z,972.99
2022-10-05T06:22:42.709Z,973.00
2022-10-05T06:23:43.015Z,973.03
2022-10-05T06:24:43.383Z,973.03
2022-10-05T06:25:43.606Z,973.00
2022-10-05T06:26:44.368Z,973.04
2022-10-05T06:27:44.232Z,973.06
2022-10-05T06:28:44.576Z,973.14
2022-10-05T06:29:44.921Z,973.09
2022-10-05T06:30:45.142Z,973.11
2022-10-05T06:31:45.560Z,973.08
2022-10-05T06:32:45.815Z,973.10
2022-10-05T06:33:46.034Z,973.07
2022-10-05T06:34:46.389Z,973.10
2022-10-05T06:35:46.590Z,973.09
2022-10-05T06:36:47.357Z,973.11
2022-10-05T06:37:47.219Z,973.08
2022-10-05T06:38:47.608Z,973.07
2022-10-05T06:39:47.835Z,973.07
2022-10-05T06:40:48.056Z,973.09
2022-10-05T06:41:48.372Z,973.07
2022-10-05T06:42:48.698Z,973.06
2022-10-05T06:43:49.029Z,973.10
2022-10-05T06:44:49.373Z,973.12
2022-10-05T06:45:49.703Z,973.13
2022-10-05T06:46:50.012Z,973.11
2022-10-05T06:47:50.250Z,973.12
2022-10-05T06:48:50.472Z,973.13
2022-10-05T06:49:50.802Z,973.17
2022-10-05T06:50:51.139Z,973.22
2022-10-05T06:51:51.494Z,973.22
2022-10-05T06:52:51.693Z,973.21
2022-10-05T06:53:52.015Z,973.21
2022-10-05T06:54:52.313Z,973.20
2022-10-05T06:55:52.688Z,973.20
2022-10-05T06:56:52.926Z,973.23
2022-10-05T06:57:53.179Z,973.22
2022-10-05T06:58:53.388Z,973.18
2022-10-05T06:59:53.717Z,973.22
2022-10-05T07:00:54.127Z,973.24
2022-10-05T07:01:54.423Z,973.24
2022-10-05T07:02:54.720Z,973.25
2022-10-05T07:03:54.950Z,973.29
2022-10-05T07:04:55.277Z,973.32
2022-10-05T07:05:55.592Z,973.30
2022-10-05T07:06:55.922Z,973.31
2022-10-05T07:07:56.290Z,973.27
2022-10-05T07:08:56.523Z,973.29
2022-10-05T07:09:56.736Z,973.26
2022-10-05T07:10:57.055Z,973.29
2022-10-05T07:12:02.294Z,973.28
2022-10-05T07:12:58.692Z,973.28
2022-10-05T07:13:58.006Z,973.32
2022-10-05T07:14:58.221Z,973.31
2022-10-05T07:15:58.584Z,973.30
2022-10-05T07:16:58.836Z,973.32
2022-10-05T07:17:59.060Z,973.30
2022-10-05T07:18:59.408Z,973.27
2022-10-05T07:19:59.611Z,973.34
2022-10-05T07:20:59.955Z,973.33
2022-10-05T07:22:00.370Z,973.31
2022-10-05T07:23:00.583Z,973.30
2022-10-05T07:24:00.891Z,973.32
2022-10-05T07:25:01.205Z,973.30
2022-10-05T07:26:01.572Z,973.32
2022-10-05T07:27:01.757Z,973.34
2022-10-05T07:28:02.205Z,973.33
2022-10-05T07:29:02.318Z,973.38
2022-10-05T07:30:02.683Z,973.41
2022-10-05T07:31:02.916Z,973.39
2022-10-05T07:32:03.163Z,973.42
2022-10-05T07:33:03.498Z,973.46
2022-10-05T07:34:03.824Z,973.46
2022-10-05T07:35:04.190Z,973.51
2022-10-05T07:36:04.408Z,973.50
2022-10-05T07:37:04.723Z,973.52
2022-10-05T07:38:05.041Z,973.54
2022-10-05T07:39:05.354Z,973.55
2022-10-05T07:40:05.725Z,973.60
2022-10-05T07:41:05.941Z,973.62
2022-10-05T07:42:06.270Z,973.65
2022-10-05T07:43:06.604Z,973.65
2022-10-05T07:44:12.406Z,973.67
2022-10-05T07:45:08.153Z,973.67
2022-10-05T07:46:07.497Z,973.66
2022-10-05T07:47:07.673Z,973.68
2022-10-05T07:48:07.895Z,973.68
2022-10-05T07:49:08.214Z,973.65
2022-10-05T07:50:08.560Z,973.67
2022-10-05T07:51:08.891Z,973.66
2022-10-05T07:52:09.221Z,973.63
2022-10-05T07:53:09.554Z,973.65
2022-10-05T07:54:09.884Z,973.60
2022-10-05T07:55:10.195Z,973.64
2022-10-05T07:56:10.400Z,973.59
2022-10-05T07:57:10.723Z,973.57
2022-10-05T07:58:10.956Z,973.61
2022-10-05T07:59:11.179Z,973.59
2022-10-05T08:00:11.511Z,973.66
2022-10-05T08:01:11.838Z,973.63
2022-10-05T08:02:12.289Z,973.63
2022-10-05T08:03:12.461Z,973.67
2022-10-05T08:04:14.481Z,973.66
2022-10-05T08:05:13.007Z,973.70
2022-10-05T08:06:13.359Z,973.69
2022-10-05T08:07:13.761Z,973.68
2022-10-05T08:08:16.680Z,973.73
2022-10-05T08:09:14.271Z,973.73
2022-10-05T08:10:14.635Z,973.73
2022-10-05T08:11:14.837Z,973.74
2022-10-05T08:12:15.161Z,973.73
2022-10-05T08:13:15.481Z,973.69
2022-10-05T08:14:15.783Z,973.71
2022-10-05T08:15:16.148Z,973.69
2022-10-05T08:16:16.451Z,973.70
2022-10-05T08:17:16.634Z,973.70
2022-10-05T08:18:16.963Z,973.69
2022-10-05T08:19:17.316Z,973.67
2022-10-05T08:20:17.525Z,973.64
2022-10-05T08:21:17.854Z,973.65
2022-10-05T08:22:18.232Z,973.64
2022-10-05T08:23:18.440Z,973.61
2022-10-05T08:24:18.811Z,973.60
2022-10-05T08:25:19.086Z,973.60
2022-10-05T08:26:19.320Z,973.64
2022-10-05T08:27:19.644Z,973.64
2022-10-05T08:28:20.092Z,973.66
2022-10-05T08:29:20.281Z,973.68
2022-10-05T08:30:20.727Z,973.66
2022-10-05T08:31:20.962Z,973.66
2022-10-05T08:32:21.097Z,973.68
2022-10-05T08:33:21.456Z,973.66
2022-10-05T08:34:21.669Z,973.64
2022-10-05T08:35:22.139Z,973.68
2022-10-05T08:36:22.256Z,973.67
2022-10-05T08:37:22.453Z,973.72
2022-10-05T08:38:22.833Z,973.71
2022-10-05T08:39:23.032Z,973.74
2022-10-05T08:40:23.354Z,973.73
2022-10-05T08:41:23.663Z,973.77
2022-10-05T08:42:23.986Z,973.78
2022-10-05T08:43:24.336Z,973.81
2022-10-05T08:44:24.644Z,973.74
2022-10-05T08:45:24.988Z,973.79
2022-10-05T08:46:25.374Z,973.81
2022-10-05T08:47:27.535Z,973.79
2022-10-05T08:48:25.954Z,973.80
2022-10-05T08:49:26.263Z,973.84
2022-10-05T08:50:26.597Z,973.82
2022-10-05T08:51:26.911Z,973.84
2022-10-05T08:52:27.275Z,973.84
2022-10-05T08:53:27.467Z,973.83
2022-10-05T08:54:27.796Z,973.86
2022-10-05T08:55:28.110Z,973.84
2022-10-05T08:56:29.059Z,973.83
2022-10-05T08:57:30.687Z,973.85
2022-10-05T08:58:29.001Z,973.85
2022-10-05T08:59:31.214Z,973.81
2022-10-05T09:00:29.653Z,973.83
2022-10-05T09:01:29.944Z,973.84
2022-10-05T09:02:30.260Z,973.81
2022-10-05T09:03:34.272Z,973.81
2022-10-05T09:04:30.760Z,973.80
2022-10-05T09:05:31.090Z,973.84
2022-10-05T09:06:33.209Z,973.84
2022-10-05T09:07:31.756Z,973.83
2022-10-05T09:08:32.068Z,973.81
2022-10-05T09:09:32.431Z,973.84
2022-10-05T09:10:32.624Z,973.82
2022-10-05T09:11:32.946Z,973.82
2022-10-05T09:12:33.261Z,973.80
2022-10-05T09:13:33.584Z,973.83
2022-10-05T09:14:33.944Z,973.85
2022-10-05T09:15:34.190Z,973.84
2022-10-05T09:16:34.440Z,973.77
2022-10-05T09:17:39.110Z,973.81
2022-10-05T09:18:35.042Z,973.77
2022-10-05T09:19:35.386Z,973.80
2022-10-05T09:20:35.575Z,973.82
2022-10-05T09:21:35.910Z,973.78
2022-10-05T09:22:36.256Z,973.74
2022-10-05T09:23:36.565Z,973.72
2022-10-05T09:24:36.884Z,973.73
2022-10-05T09:25:37.193Z,973.71
2022-10-05T09:26:38.232Z,973.69
2022-10-05T09:27:37.770Z,973.71
2022-10-05T09:28:38.052Z,973.72
2022-10-05T09:29:38.185Z,973.68
2022-10-05T09:30:38.565Z,973.71
2022-10-05T09:31:38.726Z,973.72
2022-10-05T09:32:39.071Z,973.74
2022-10-05T09:33:39.416Z,973.71
2022-10-05T09:34:39.609Z,973.68
2022-10-05T09:35:39.916Z,973.67
2022-10-05T09:36:40.225Z,973.65
2022-10-05T09:37:40.583Z,973.63
2022-10-05T09:38:40.767Z,973.61
2022-10-05T09:39:41.096Z,973.60
2022-10-05T09:40:41.394Z,973.59
2022-10-05T09:41:43.565Z,973.57
2022-10-05T09:42:42.021Z,973.55
2022-10-05T09:43:42.203Z,973.52
2022-10-05T09:44:42.539Z,973.69
2022-10-05T09:45:42.856Z,973.61
2022-10-05T09:46:43.280Z,973.65
2022-10-05T09:47:43.519Z,973.64
2022-10-05T09:48:43.853Z,973.62
2022-10-05T09:49:44.222Z,973.65
2022-10-05T09:50:44.415Z,973.63
2022-10-05T09:51:45.126Z,973.67
2022-10-05T09:52:46.806Z,973.64
2022-10-05T09:53:45.219Z,973.64
2022-10-05T09:54:45.577Z,973.65
2022-10-05T09:55:45.802Z,973.61
2022-10-05T09:56:46.409Z,973.54
2022-10-05T09:57:49.278Z,973.47
2022-10-05T09:58:47.750Z,973.45
2022-10-05T09:59:47.001Z,973.43
2022-10-05T10:00:54.199Z,973.41
2022-10-05T10:01:49.012Z,973.40
2022-10-05T10:02:47.969Z,973.45
2022-10-05T10:03:48.402Z,973.49
2022-10-05T10:04:48.408Z,973.48
2022-10-05T10:05:48.637Z,973.53
2022-10-05T10:06:48.859Z,973.58
2022-10-05T10:07:49.197Z,973.54
2022-10-05T10:08:49.386Z,973.57
2022-10-05T10:09:49.678Z,973.51
2022-10-05T10:10:50.018Z,973.54
2022-10-05T10:11:50.485Z,973.45
2022-10-05T10:12:50.594Z,973.36
2022-10-05T10:13:50.929Z,973.31
2022-10-05T10:14:51.232Z,973.31
2022-10-05T10:15:51.580Z,973.30
2022-10-05T10:16:51.789Z,973.30
2022-10-05T10:17:52.108Z,973.28
2022-10-05T10:18:52.422Z,973.33
2022-10-05T10:19:52.720Z,973.30
2022-10-05T10:20:53.059Z,973.28
2022-10-05T10:21:53.398Z,973.21
2022-10-05T10:22:53.691Z,973.28
2022-10-05T10:23:53.974Z,973.27
2022-10-05T10:24:54.308Z,973.30
2022-10-05T10:25:54.607Z,973.25
2022-10-05T10:26:54.906Z,973.26
2022-10-05T10:27:55.267Z,973.26
2022-10-05T10:28:55.463Z,973.29
2022-10-05T10:29:55.816Z,973.36
2022-10-05T10:30:56.106Z,973.32
2022-10-05T10:31:56.357Z,973.34
2022-10-05T10:32:56.540Z,973.37
2022-10-05T10:33:56.870Z,973.42
2022-10-05T10:34:57.182Z,973.38
2022-10-05T10:35:59.555Z,973.39
2022-10-05T10:36:58.838Z,973.40
2022-10-05T10:37:58.098Z,973.36
2022-10-05T10:38:58.429Z,973.27
2022-10-05T10:39:58.620Z,973.26
2022-10-05T10:40:58.916Z,973.31
2022-10-05T10:42:01.051Z,973.28
2022-10-05T10:43:01.260Z,973.30
2022-10-05T10:43:59.810Z,973.25
2022-10-05T10:45:00.118Z,973.27
2022-10-05T10:46:00.470Z,973.31
2022-10-05T10:47:00.787Z,973.34
2022-10-05T10:48:01.054Z,973.26
2022-10-05T10:49:01.353Z,973.33
2022-10-05T10:50:01.668Z,973.34
2022-10-05T10:51:03.810Z,973.31
2022-10-05T10:52:02.254Z,973.23
2022-10-05T10:53:02.435Z,973.24
2022-10-05T10:54:02.745Z,973.28
2022-10-05T10:55:03.073Z,973.18
2022-10-05T10:56:03.433Z,973.19
2022-10-05T10:57:03.621Z,973.16
2022-10-05T10:58:03.943Z,973.16
2022-10-05T10:59:04.258Z,973.12
2022-10-05T11:00:04.586Z,973.02
2022-10-05T11:01:06.739Z,973.05
2022-10-05T11:02:05.236Z,973.02
2022-10-05T11:03:05.557Z,972.98
2022-10-05T11:04:05.695Z,972.98
2022-10-05T11:05:06.009Z,972.96
2022-10-05T11:06:06.297Z,972.87
2022-10-05T11:07:06.606Z,972.95
2022-10-05T11:08:06.950Z,972.93
2022-10-05T11:09:07.258Z,972.89
2022-10-05T11:10:07.592Z,972.84
2022-10-05T11:11:07.907Z,972.81
2022-10-05T11:12:08.988Z,972.75
2022-10-05T11:13:08.508Z,972.75
2022-10-05T11:14:08.817Z,972.66
2022-10-05T11:15:09.127Z,972.66
2022-10-05T11:16:09.441Z,972.63
2022-10-05T11:17:09.757Z,972.60
2022-10-05T11:18:10.116Z,972.60
2022-10-05T11:19:10.295Z,972.58
2022-10-05T11:20:10.584Z,972.59
2022-10-05T11:21:10.901Z,972.54
2022-10-05T11:22:11.230Z,972.55
2022-10-05T11:23:11.468Z,972.49
2022-10-05T11:24:11.665Z,972.49
2022-10-05T11:25:11.980Z,972.50
2022-10-05T11:26:12.288Z,972.53
2022-10-05T11:27:12.626Z,972.54
2022-10-05T11:28:12.977Z,972.51
2022-10-05T11:29:13.075Z,972.51
2022-10-05T11:30:13.397Z,972.55
2022-10-05T11:31:13.805Z,972.52
2022-10-05T11:32:14.009Z,972.49
2022-10-05T11:33:14.327Z,972.49
2022-10-05T11:34:14.627Z,972.45
2022-10-05T11:35:14.991Z,972.45
2022-10-05T11:36:15.193Z,972.45
2022-10-05T11:37:15.496Z,972.44
2022-10-05T11:38:15.810Z,972.43
2022-10-05T11:39:16.134Z,972.35
2022-10-05T11:40:16.482Z,972.32
2022-10-05T11:41:16.693Z,972.30
2022-10-05T11:42:17.030Z,972.29
2022-10-05T11:43:17.228Z,972.31
2022-10-05T11:44:17.561Z,972.30
2022-10-05T11:45:17.769Z,972.27
2022-10-05T11:46:18.107Z,972.27
2022-10-05T11:47:18.351Z,972.25
2022-10-05T11:48:18.639Z,972.23
2022-10-05T11:49:18.965Z,972.24
2022-10-05T11:50:19.162Z,972.23
2022-10-05T11:51:19.470Z,972.20
2022-10-05T11:52:19.789Z,972.23
2022-10-05T11:53:20.113Z,972.20
2022-10-05T11:54:20.470Z,972.19
2022-10-05T11:55:20.659Z,972.17
2022-10-05T11:56:21.059Z,972.13
2022-10-05T11:57:21.257Z,972.10
2022-10-05T11:58:21.584Z,972.09
2022-10-05T11:59:21.904Z,972.08
2022-10-05T12:00:22.302Z,972.04
2022-10-05T12:01:22.436Z,972.03
2022-10-05T12:02:22.784Z,972.01
2022-10-05T12:03:23.223Z,972.05
2022-10-05T12:04:23.362Z,972.02
2022-10-05T12:05:23.654Z,972.00
2022-10-05T12:06:24.004Z,971.99
2022-10-05T12:07:24.207Z,972.00
2022-10-05T12:08:24.565Z,971.97
2022-10-05T12:09:24.773Z,972.00
2022-10-05T12:10:25.073Z,972.01
2022-10-05T12:11:25.387Z,972.03
2022-10-05T12:12:25.694Z,971.99
2022-10-05T12:13:26.028Z,971.94
2022-10-05T12:14:26.397Z,971.93
2022-10-05T12:15:26.590Z,971.89
2022-10-05T12:16:26.962Z,971.95
2022-10-05T12:17:27.187Z,971.97
2022-10-05T12:18:27.515Z,971.93
2022-10-05T12:19:27.859Z,971.92
2022-10-05T12:20:28.168Z,971.93
2022-10-05T12:21:28.471Z,971.92
2022-10-05T12:22:28.817Z,971.92
2022-10-05T12:23:29.120Z,971.90
2022-10-05T12:24:29.475Z,971.96
2022-10-05T12:25:29.651Z,971.94
2022-10-05T12:26:29.965Z,971.91
2022-10-05T12:27:30.264Z,972.00
2022-10-05T12:28:30.659Z,971.99
2022-10-05T12:29:30.865Z,971.96
2022-10-05T12:30:31.273Z,971.96
2022-10-05T12:31:31.604Z,971.98
2022-10-05T12:32:31.751Z,971.92
2022-10-05T12:33:32.065Z,971.91
2022-10-05T12:34:32.394Z,971.89
2022-10-05T12:35:47.304Z,971.85
2022-10-05T12:36:52.546Z,971.84
2022-10-05T12:37:34.236Z,971.83
2022-10-05T12:38:35.361Z,971.83
2022-10-05T12:39:33.826Z,971.77
2022-10-05T12:40:34.009Z,971.81
2022-10-05T12:41:34.826Z,971.77
2022-10-05T12:42:39.421Z,971.76
2022-10-05T12:43:35.887Z,971.76
2022-10-05T12:44:35.139Z,971.76
2022-10-05T12:45:35.510Z,971.73
2022-10-05T12:46:35.779Z,971.75
2022-10-05T12:47:35.988Z,971.73
2022-10-05T12:48:36.316Z,971.78
2022-10-05T12:49:36.624Z,971.76
2022-10-05T12:50:36.929Z,971.75
2022-10-05T12:51:37.280Z,971.76
2022-10-05T12:52:37.464Z,971.73
2022-10-05T12:53:37.761Z,971.74
2022-10-05T12:54:38.107Z,971.77
2022-10-05T12:55:38.416Z,971.83
2022-10-05T12:56:38.801Z,971.86
2022-10-05T12:57:39.014Z,971.87
2022-10-05T12:58:39.306Z,971.87
2022-10-05T12:59:39.606Z,971.84
2022-10-05T13:00:39.942Z,971.88
2022-10-05T13:01:43.914Z,971.87
2022-10-05T13:02:40.466Z,971.83
2022-10-05T13:03:40.799Z,971.89
2022-10-05T13:04:41.088Z,971.92
2022-10-05T13:05:41.442Z,971.96
2022-10-05T13:06:41.730Z,971.98
2022-10-05T13:07:42.084Z,971.96
2022-10-05T13:08:42.276Z,972.03
2022-10-05T13:09:42.610Z,972.06
2022-10-05T13:10:42.915Z,972.05
2022-10-05T13:11:43.259Z,972.07
2022-10-05T13:12:43.567Z,972.04
2022-10-05T13:13:43.871Z,972.00
2022-10-05T13:14:44.166Z,972.02
2022-10-05T13:15:44.468Z,971.96
2022-10-05T13:16:44.881Z,971.97
2022-10-05T13:17:45.115Z,971.96
2022-10-05T13:18:45.409Z,971.95
2022-10-05T13:19:45.723Z,971.97
2022-10-05T13:20:46.046Z,971.96
2022-10-05T13:21:46.626Z,972.01
2022-10-05T13:22:46.637Z,972.06
2022-10-05T13:23:46.926Z,972.04
2022-10-05T13:24:47.237Z,972.05
2022-10-05T13:25:47.524Z,972.06
2022-10-05T13:26:47.851Z,972.06
2022-10-05T13:27:48.145Z,972.03
2022-10-05T13:28:48.450Z,972.08
2022-10-05T13:29:52.277Z,972.09
2022-10-05T13:30:50.055Z,972.03
2022-10-05T13:31:49.387Z,972.08
2022-10-05T13:32:49.660Z,972.04
2022-10-05T13:33:49.945Z,972.03
2022-10-05T13:34:50.251Z,972.03
2022-10-05T13:35:50.570Z,972.02
2022-10-05T13:36:50.884Z,972.00
2022-10-05T13:37:51.242Z,972.00
2022-10-05T13:38:51.410Z,972.03
2022-10-05T13:39:51.738Z,971.98
2022-10-05T13:40:52.032Z,971.97
2022-10-05T13:41:52.345Z,971.95
2022-10-05T13:42:52.689Z,971.96
2022-10-05T13:43:54.676Z,971.92
2022-10-05T13:44:53.201Z,971.95
2022-10-05T13:45:55.836Z,971.93
2022-10-05T13:46:53.794Z,971.90
2022-10-05T13:47:54.091Z,971.91
2022-10-05T13:48:54.421Z,971.87
2022-10-05T13:49:54.779Z,971.86
2022-10-05T13:50:55.023Z,971.85
2022-10-05T13:51:55.262Z,971.86
2022-10-05T13:52:55.479Z,971.86
2022-10-05T13:53:55.787Z,971.88
2022-10-05T13:54:56.147Z,971.82
2022-10-05T13:55:56.331Z,971.82
2022-10-05T13:56:56.662Z,971.80
2022-10-05T13:57:56.871Z,971.76
2022-10-05T13:58:57.184Z,971.79
2022-10-05T13:59:57.523Z,971.81
2022-10-05T14:00:57.874Z,971.81
2022-10-05T14:01:58.160Z,971.79
2022-10-05T14:02:58.420Z,971.82
2022-10-05T14:03:58.647Z,971.81
2022-10-05T14:04:58.985Z,971.80
2022-10-05T14:05:59.344Z,971.79
2022-10-05T14:06:59.518Z,971.81
2022-10-05T14:07:59.797Z,971.88
2022-10-05T14:09:00.125Z,971.86
2022-10-05T14:10:00.464Z,971.86
2022-10-05T14:11:00.803Z,971.89
2022-10-05T14:12:01.041Z,971.93
2022-10-05T14:13:01.238Z,971.95
2022-10-05T14:14:01.558Z,971.93
2022-10-05T14:15:01.878Z,971.92
2022-10-05T14:16:02.242Z,971.92
2022-10-05T14:18:02.757Z,971.91
2022-10-05T14:19:02.934Z,971.91
2022-10-05T14:20:03.228Z,971.92
2022-10-05T14:21:03.507Z,971.92
2022-10-05T14:22:03.839Z,971.95
2022-10-05T14:23:07.809Z,971.91
2022-10-05T14:24:08.465Z,971.90
2022-10-05T14:25:04.675Z,971.90
2022-10-05T14:26:04.964Z,971.93
2022-10-05T14:27:05.307Z,971.97
2022-10-05T14:28:05.562Z,972.00
2022-10-05T14:29:05.774Z,971.98
2022-10-05T14:30:06.100Z,972.05
2022-10-05T14:31:06.421Z,972.07
2022-10-05T14:32:06.797Z,972.04
2022-10-05T14:33:07.012Z,972.07
2022-10-05T14:34:07.356Z,972.09
2022-10-05T14:35:07.685Z,972.08
2022-10-05T14:36:07.984Z,972.06